Time;durP1;ratioP1;P1;durP2;ratioP2;P2;SDS_P1;SDS_P2;PMS_P1;PMS_P2;Temp;Humidity;BMP_temperature;BMP_pressure;BME280_temperature;BME280_humidity;BME280_pressure;Samples;Min_cycle;Max_cycle;Signal;HPM_P1;HPM_P2
2021/08/16 00:00:15;;;;;;;15.85;5.63;;;;;;;14.57;74.67;99318.94;5085779;28;20032;-68
2021/08/16 00:02:42;;;;;;;10.43;6.40;;;;;;;14.54;75.11;99314.66;5085841;28;20024;-68
2021/08/16 00:05:09;;;;;;;15.70;6.57;;;;;;;14.52;75.33;99323.50;5085920;28;20017;-68
2021/08/16 00:07:34;;;;;;;13.90;6.70;;;;;;;14.50;75.66;99318.34;5085662;28;20024;-67
2021/08/16 00:09:59;;;;;;;21.38;7.97;;;;;;;14.48;75.98;99317.53;5085858;28;20070;-68
2021/08/16 00:12:25;;;;;;;17.45;7.28;;;;;;;14.52;75.44;99316.50;5085811;28;20052;-67
2021/08/16 00:14:50;;;;;;;15.27;6.97;;;;;;;14.53;75.88;99314.72;5084458;28;20088;-66
2021/08/16 00:17:15;;;;;;;16.73;6.70;;;;;;;14.54;76.02;99311.19;5084280;28;20020;-66
2021/08/16 00:19:41;;;;;;;14.05;6.68;;;;;;;14.55;75.80;99307.69;5085747;28;20072;-66
2021/08/16 00:22:07;;;;;;;12.90;7.15;;;;;;;14.52;76.14;99308.66;5085480;28;20489;-65
2021/08/16 00:24:32;;;;;;;17.25;6.72;;;;;;;14.48;76.23;99310.56;5085342;28;20074;-65
2021/08/16 00:27:01;;;;;;;14.68;6.43;;;;;;;14.44;76.27;99301.16;5085627;28;20024;-65
2021/08/16 00:29:26;;;;;;;13.20;7.40;;;;;;;14.37;76.52;99305.81;5085442;28;20024;-64
2021/08/16 00:31:52;;;;;;;17.30;6.43;;;;;;;14.29;76.83;99292.22;5085299;28;20035;-64
2021/08/16 00:34:17;;;;;;;10.10;6.55;;;;;;;14.25;77.02;99298.47;5085113;28;20398;-64
2021/08/16 00:36:42;;;;;;;15.18;6.88;;;;;;;14.21;77.06;99299.50;5085373;28;20111;-63
2021/08/16 00:39:08;;;;;;;9.93;6.53;;;;;;;14.19;77.20;99298.72;5085305;28;20024;-64
2021/08/16 00:41:35;;;;;;;13.55;6.80;;;;;;;14.13;77.64;99287.63;5084548;28;20027;-64
2021/08/16 00:44:00;;;;;;;18.00;7.10;;;;;;;14.11;77.79;99279.03;5085358;28;20035;-64
2021/08/16 00:46:28;;;;;;;21.80;8.07;;;;;;;14.19;77.67;99290.88;5085051;28;20497;-64
2021/08/16 00:48:54;;;;;;;13.70;6.60;;;;;;;14.18;77.67;99291.81;5085064;28;20023;-64
2021/08/16 00:51:20;;;;;;;18.00;7.57;;;;;;;14.17;77.63;99292.72;5085078;28;20120;-64
2021/08/16 00:53:47;;;;;;;13.65;7.30;;;;;;;14.15;77.79;99305.00;5084880;28;20012;-64
2021/08/16 00:56:13;;;;;;;17.90;7.63;;;;;;;14.13;77.79;99285.03;5084772;28;20058;-64
2021/08/16 00:58:40;;;;;;;19.83;8.07;;;;;;;14.11;77.83;99280.78;5084849;28;20024;-64
2021/08/16 01:01:05;;;;;;;13.98;7.68;;;;;;;14.09;77.98;99280.00;5084655;28;20025;-64
2021/08/16 01:03:32;;;;;;;21.35;8.23;;;;;;;13.99;78.19;99272.53;5084470;28;20035;-64
2021/08/16 01:05:58;;;;;;;14.38;8.60;;;;;;;13.94;78.44;99273.63;5084535;28;20036;-64
2021/08/16 01:08:25;;;;;;;16.50;8.73;;;;;;;13.91;78.84;99281.59;5084557;28;20070;-64
2021/08/16 01:10:51;;;;;;;14.73;8.02;;;;;;;13.81;79.52;99275.88;5084602;28;20299;-64
2021/08/16 01:13:17;;;;;;;17.75;8.90;;;;;;;13.76;79.91;99278.69;5084610;28;20036;-65
2021/08/16 01:16:03;;;;;;;18.20;8.52;;;;;;;13.68;80.06;99273.78;5084728;28;20109;-65
2021/08/16 01:18:32;;;;;;;16.65;7.88;;;;;;;13.64;80.35;99274.81;5084143;28;20048;-65
2021/08/16 01:20:59;;;;;;;14.27;8.38;;;;;;;13.60;80.61;99265.41;5084160;28;20488;-65
2021/08/16 01:23:25;;;;;;;17.20;9.43;;;;;;;13.54;80.58;99261.28;5084382;28;20024;-65
2021/08/16 01:25:51;;;;;;;14.20;8.27;;;;;;;13.54;80.94;99253.47;5083943;28;20351;-64
2021/08/16 01:28:17;;;;;;;17.80;8.43;;;;;;;13.54;80.75;99248.25;5084124;28;20080;-65
2021/08/16 01:30:43;;;;;;;18.45;9.63;;;;;;;13.47;81.04;99244.13;5084151;28;20020;-64
2021/08/16 01:33:09;;;;;;;30.13;10.60;;;;;;;13.44;81.37;99252.06;5084380;28;20036;-64
2021/08/16 01:35:34;;;;;;;23.83;10.60;;;;;;;13.46;81.52;99252.88;5084158;28;20031;-64
2021/08/16 01:38:00;;;;;;;14.75;8.98;;;;;;;13.47;81.45;99244.13;5084146;28;20024;-64
2021/08/16 01:40:25;;;;;;;23.63;10.30;;;;;;;13.53;81.31;99246.53;5083898;28;20021;-64
2021/08/16 01:42:51;;;;;;;19.95;10.13;;;;;;;13.51;81.19;99240.56;5084080;28;20040;-64
2021/08/16 01:45:16;;;;;;;24.40;12.02;;;;;;;13.58;80.87;99246.34;5083746;28;20152;-64
2021/08/16 01:47:41;;;;;;;25.35;10.45;;;;;;;13.58;80.96;99248.97;5084136;28;20020;-64
2021/08/16 01:50:07;;;;;;;27.10;10.60;;;;;;;13.49;80.93;99234.50;5083890;28;20016;-64
2021/08/16 01:52:33;;;;;;;20.92;10.52;;;;;;;13.55;81.16;99252.53;5083083;28;20021;-64
2021/08/16 01:54:58;;;;;;;20.05;10.07;;;;;;;13.57;81.13;99244.66;5083578;28;20019;-63
2021/08/16 01:57:24;;;;;;;20.15;10.90;;;;;;;13.55;81.07;99236.91;5083667;28;20024;-64
2021/08/16 01:59:49;;;;;;;20.10;9.80;;;;;;;13.56;81.18;99233.38;5083550;28;20103;-64
2021/08/16 02:02:14;;;;;;;25.95;10.48;;;;;;;13.55;81.10;99234.28;5083600;28;20020;-64
2021/08/16 02:04:40;;;;;;;20.52;9.77;;;;;;;13.44;81.25;99211.22;5083515;28;20046;-64
2021/08/16 02:07:05;;;;;;;16.48;10.25;;;;;;;13.54;81.15;99229.13;5083575;28;20027;-63
2021/08/16 02:09:30;;;;;;;15.38;9.18;;;;;;;13.54;81.49;99224.78;5083577;28;20024;-64
2021/08/16 02:11:56;;;;;;;18.15;9.10;;;;;;;13.50;81.55;99223.16;5083586;28;20012;-65
2021/08/16 02:14:21;;;;;;;18.77;10.18;;;;;;;13.47;81.67;99220.66;5083493;28;20060;-64
2021/08/16 02:16:46;;;;;;;17.08;9.75;;;;;;;13.48;81.86;99212.78;5083295;28;20424;-65
2021/08/16 02:19:12;;;;;;;20.77;9.23;;;;;;;13.49;81.75;99211.91;5083161;28;20103;-63
2021/08/16 02:21:37;;;;;;;17.05;9.07;;;;;;;13.51;81.52;99207.47;5083294;28;20025;-63
2021/08/16 02:24:03;;;;;;;22.52;10.30;;;;;;;13.48;81.54;99198.94;5083301;28;20024;-63
2021/08/16 02:26:29;;;;;;;18.63;10.27;;;;;;;13.53;81.35;99186.56;5081737;28;20078;-64
2021/08/16 02:28:54;;;;;;;20.40;9.75;;;;;;;13.66;81.35;99206.94;5083208;28;20024;-64
2021/08/16 02:31:23;;;;;;;20.58;10.20;;;;;;;13.65;81.34;99194.81;5083176;28;20078;-65
2021/08/16 02:33:50;;;;;;;22.42;10.20;;;;;;;13.72;81.12;99198.88;5081889;28;20016;-64
2021/08/16 02:36:16;;;;;;;18.48;10.27;;;;;;;13.72;81.11;99189.28;5083277;28;20100;-64
2021/08/16 02:38:41;;;;;;;19.80;10.00;;;;;;;13.71;81.35;99199.75;5083339;28;20029;-64
2021/08/16 02:41:06;;;;;;;16.75;9.90;;;;;;;13.68;81.23;99194.69;5083077;28;20025;-63
2021/08/16 02:43:32;;;;;;;24.77;10.95;;;;;;;13.68;81.31;99192.06;5083359;28;20021;-63
2021/08/16 02:45:57;;;;;;;19.20;10.10;;;;;;;13.70;81.34;99185.03;5083334;28;20028;-63
2021/08/16 02:48:23;;;;;;;21.52;10.30;;;;;;;13.70;81.44;99180.69;5083279;28;20024;-63
2021/08/16 02:50:48;;;;;;;18.40;9.80;;;;;;;13.73;81.46;99179.69;5083083;28;20016;-64
2021/08/16 02:53:13;;;;;;;21.77;10.15;;;;;;;13.70;81.40;99178.06;5083159;28;20046;-64
2021/08/16 02:55:39;;;;;;;17.15;10.40;;;;;;;13.71;81.51;99171.06;5083079;28;20040;-63
2021/08/16 02:58:04;;;;;;;22.83;10.18;;;;;;;13.70;81.43;99175.47;5083230;28;20057;-63
2021/08/16 03:00:30;;;;;;;23.42;10.25;;;;;;;13.68;81.47;99168.59;5083241;28;20463;-63
2021/08/16 03:02:55;;;;;;;18.25;9.75;;;;;;;13.70;81.66;99166.78;5083377;28;20069;-63
2021/08/16 03:05:20;;;;;;;18.90;10.02;;;;;;;13.72;81.69;99176.22;5087247;28;20034;-63
2021/08/16 03:07:46;;;;;;;22.13;10.88;;;;;;;13.73;81.78;99177.09;5085930;28;20025;-63
2021/08/16 03:10:13;;;;;;;17.08;9.45;;;;;;;13.75;81.47;99172.66;5085636;28;20021;-63
2021/08/16 03:12:39;;;;;;;18.58;10.35;;;;;;;13.73;81.77;99166.66;5086997;28;20377;-64
2021/08/16 03:15:06;;;;;;;19.08;10.15;;;;;;;13.74;81.67;99168.34;5086783;28;20055;-63
2021/08/16 03:17:32;;;;;;;21.25;10.32;;;;;;;13.71;81.81;99164.09;5086718;28;20392;-63
2021/08/16 03:19:58;;;;;;;19.83;10.32;;;;;;;13.70;81.90;99162.44;5086577;28;20040;-63
2021/08/16 03:22:23;;;;;;;17.23;9.32;;;;;;;13.68;81.86;99166.84;5086932;28;20052;-63
2021/08/16 03:24:48;;;;;;;12.02;6.80;;;;;;;13.67;81.61;99159.09;5086398;28;20032;-64
2021/08/16 03:27:14;;;;;;;10.85;5.68;;;;;;;13.61;81.47;99165.41;5086304;28;20032;-64
2021/08/16 03:29:40;;;;;;;9.68;5.80;;;;;;;13.54;81.35;99151.78;5085779;28;20080;-64
2021/08/16 03:32:05;;;;;;;11.85;5.63;;;;;;;13.53;81.52;99157.06;5086091;28;20017;-64
2021/08/16 03:34:31;;;;;;;10.32;5.63;;;;;;;13.48;81.38;99152.00;5086552;28;20039;-65
2021/08/16 03:36:56;;;;;;;12.68;5.57;;;;;;;13.48;81.17;99157.22;5086409;28;20020;-65
2021/08/16 03:39:22;;;;;;;12.02;5.53;;;;;;;13.46;81.48;99164.25;5086458;28;20028;-65
2021/08/16 03:41:47;;;;;;;10.43;5.50;;;;;;;13.48;81.30;99165.03;5086194;28;20026;-65
2021/08/16 03:44:13;;;;;;;8.63;5.40;;;;;;;13.48;80.75;99159.81;5086514;28;20035;-65
2021/08/16 03:46:38;;;;;;;9.75;4.90;;;;;;;13.36;80.75;99135.94;5086225;28;20392;-65
2021/08/16 03:49:03;;;;;;;13.40;5.65;;;;;;;13.45;80.92;99150.34;5086277;28;20025;-65
2021/08/16 03:51:29;;;;;;;9.35;5.10;;;;;;;13.45;80.91;99139.91;5086300;28;20031;-65
2021/08/16 03:53:54;;;;;;;7.78;5.07;;;;;;;13.45;80.84;99139.91;5086257;28;20048;-64
2021/08/16 03:56:20;;;;;;;6.97;4.68;;;;;;;13.41;80.67;99135.75;5085980;28;20062;-65
2021/08/16 03:58:45;;;;;;;7.35;4.90;;;;;;;13.44;80.83;99139.97;5085958;28;20082;-65
2021/08/16 04:01:10;;;;;;;8.55;5.35;;;;;;;13.44;80.58;99132.16;5086015;28;20026;-63
2021/08/16 04:03:39;;;;;;;7.43;4.75;;;;;;;13.43;80.67;99126.13;5085999;28;20389;-64
2021/08/16 04:06:04;;;;;;;8.80;5.10;;;;;;;13.49;80.56;99131.06;5085978;28;20024;-64
2021/08/16 04:08:29;;;;;;;8.95;4.95;;;;;;;13.50;80.59;99132.78;5084610;28;20029;-65
2021/08/16 04:10:55;;;;;;;9.07;4.50;;;;;;;13.54;80.33;99136.13;5085910;28;20069;-65
2021/08/16 04:13:20;;;;;;;4.82;4.10;;;;;;;13.55;80.62;99131.75;5084583;28;20031;-65
2021/08/16 04:15:45;;;;;;;9.30;5.13;;;;;;;13.52;80.02;99130.13;5084875;28;20442;-65
2021/08/16 04:18:11;;;;;;;7.88;4.72;;;;;;;13.54;79.79;99127.44;5085593;28;20048;-64
2021/08/16 04:20:36;;;;;;;12.20;5.90;;;;;;;13.57;79.88;99127.31;5085761;28;20028;-65
2021/08/16 04:23:01;;;;;;;12.27;5.25;;;;;;;13.57;79.88;99128.19;5085593;28;20066;-66
2021/08/16 04:25:27;;;;;;;9.23;4.95;;;;;;;13.57;79.59;99128.19;5085436;28;20027;-68
2021/08/16 04:27:52;;;;;;;6.65;5.13;;;;;;;13.56;79.58;99115.22;5085611;28;20039;-67
2021/08/16 04:30:18;;;;;;;8.25;4.70;;;;;;;13.54;79.83;99124.84;5085522;28;20028;-66
2021/08/16 04:32:44;;;;;;;7.82;5.20;;;;;;;13.54;79.75;99119.63;5085358;28;20025;-66
2021/08/16 04:35:10;;;;;;;6.85;4.47;;;;;;;13.49;79.69;99119.78;5084780;28;20025;-66
2021/08/16 04:37:40;;;;;;;6.80;4.43;;;;;;;13.48;79.73;99118.09;5084953;28;20097;-69
2021/08/16 04:40:07;;;;;;;5.90;3.83;;;;;;;13.48;79.49;99125.94;5085155;28;20027;-69
2021/08/16 04:42:33;;;;;;;10.40;4.15;;;;;;;13.46;79.28;99122.53;5085135;28;20025;-76
2021/08/16 04:44:59;;;;;;;10.35;4.22;;;;;;;13.42;79.16;99124.41;5084876;28;20020;-73
2021/08/16 04:47:24;;;;;;;8.45;4.53;;;;;;;13.38;79.27;99131.53;5085071;28;20021;-71
2021/08/16 04:49:49;;;;;;;10.07;4.35;;;;;;;13.37;79.28;99128.97;5084813;28;20024;-71
2021/08/16 04:52:15;;;;;;;8.23;4.63;;;;;;;13.39;79.42;99128.00;5085040;28;20103;-70
2021/08/16 04:54:40;;;;;;;9.88;4.80;;;;;;;13.39;79.38;99117.56;5084635;28;20085;-70
2021/08/16 04:57:06;;;;;;;6.07;3.40;;;;;;;13.38;79.14;99120.22;5084939;28;20031;-69
2021/08/16 04:59:31;;;;;;;5.80;3.47;;;;;;;13.41;79.11;99120.09;5084939;28;20029;-69
2021/08/16 05:01:56;;;;;;;6.18;3.60;;;;;;;13.40;79.07;99121.03;5084638;28;20396;-70
2021/08/16 05:04:22;;;;;;;9.45;4.03;;;;;;;13.36;78.86;99122.06;5084616;28;20040;-70
2021/08/16 05:06:47;;;;;;;7.10;2.83;;;;;;;13.38;78.93;99118.50;5084611;28;20016;-71
2021/08/16 05:09:13;;;;;;;6.38;3.35;;;;;;;13.41;78.72;99120.09;5084518;28;20028;-70
2021/08/16 05:11:38;;;;;;;7.32;3.55;;;;;;;13.44;78.47;99119.13;5084011;28;20024;-70
2021/08/16 05:14:03;;;;;;;5.20;2.95;;;;;;;13.41;78.57;99112.28;5082862;28;20397;-70
2021/08/16 05:16:29;;;;;;;7.80;3.45;;;;;;;13.47;78.61;99113.78;5084374;28;20110;-71
2021/08/16 05:18:55;;;;;;;8.90;3.67;;;;;;;13.55;78.15;99121.31;5084019;28;20411;-71
2021/08/16 05:21:22;;;;;;;7.85;4.32;;;;;;;13.58;78.27;99129.00;5083978;28;20107;-71
2021/08/16 05:23:47;;;;;;;7.60;3.85;;;;;;;13.58;78.28;99108.16;5084157;28;20020;-71
2021/08/16 05:26:13;;;;;;;7.40;3.55;;;;;;;13.61;78.33;99108.88;5083547;28;20393;-71
2021/08/16 05:28:38;;;;;;;6.63;3.65;;;;;;;13.65;78.21;99116.56;5084014;28;20028;-72
2021/08/16 05:31:04;;;;;;;5.85;3.50;;;;;;;13.65;77.95;99119.19;5082646;28;20075;-71
2021/08/16 05:33:29;;;;;;;7.72;3.38;;;;;;;13.63;77.89;99116.63;5084165;28;20016;-71
2021/08/16 05:35:54;;;;;;;5.63;2.83;;;;;;;13.57;77.58;99112.53;5083729;28;20016;-71
2021/08/16 05:38:20;;;;;;;5.18;3.53;;;;;;;13.56;77.61;99115.22;5083749;28;20089;-71
2021/08/16 05:40:45;;;;;;;6.95;3.25;;;;;;;13.54;77.44;99119.63;5083132;28;20476;-71
2021/08/16 05:43:10;;;;;;;4.95;3.33;;;;;;;13.50;77.74;99116.25;5083786;28;20455;-72
2021/08/16 05:45:36;;;;;;;6.95;2.92;;;;;;;13.46;77.68;99109.50;5083433;28;20524;-71
2021/08/16 05:48:02;;;;;;;8.02;3.65;;;;;;;13.48;77.63;99118.09;5083463;28;20032;-72
2021/08/16 05:50:27;;;;;;;4.93;3.13;;;;;;;13.47;77.88;99116.38;5084069;28;20042;-71
2021/08/16 05:52:53;;;;;;;6.95;3.42;;;;;;;13.47;77.81;99119.84;5082502;28;20107;-71
2021/08/16 05:55:19;;;;;;;7.88;3.65;;;;;;;13.46;77.74;99123.38;5083543;28;20634;-70
2021/08/16 05:57:45;;;;;;;7.47;3.97;;;;;;;13.43;77.85;99126.13;5083447;28;20020;-70
2021/08/16 06:00:11;;;;;;;8.85;3.90;;;;;;;13.38;78.12;99115.03;5082310;28;20047;-68
2021/08/16 06:02:37;;;;;;;6.95;3.72;;;;;;;13.41;78.29;99124.47;5083622;28;20096;-66
2021/08/16 06:05:03;;;;;;;8.15;4.72;;;;;;;13.47;78.49;99126.81;5083156;28;20025;-66
2021/08/16 06:07:28;;;;;;;7.78;3.60;;;;;;;13.49;78.45;99132.81;5081982;28;20021;-66
2021/08/16 06:09:54;;;;;;;7.50;4.05;;;;;;;13.57;78.44;99128.19;5083338;28;20032;-66
2021/08/16 06:12:19;;;;;;;6.55;3.75;;;;;;;13.63;78.50;99138.34;5083671;28;20369;-67
2021/08/16 06:14:45;;;;;;;9.43;4.05;;;;;;;13.71;78.23;99129.34;5083236;28;20180;-66
2021/08/16 06:17:11;;;;;;;6.00;3.20;;;;;;;13.75;77.90;99125.72;5083246;28;20336;-66
2021/08/16 06:19:36;;;;;;;4.57;2.92;;;;;;;13.85;77.88;99126.19;5083118;28;20109;-66
2021/08/16 06:22:03;;;;;;;6.28;3.08;;;;;;;13.92;77.73;99125.00;5081823;28;20055;-66
2021/08/16 06:24:28;;;;;;;7.68;3.20;;;;;;;13.97;77.81;99115.22;5083002;28;20119;-66
2021/08/16 06:26:54;;;;;;;6.43;2.53;;;;;;;14.06;77.42;99129.59;5082949;28;20135;-66
2021/08/16 06:29:19;;;;;;;5.47;3.80;;;;;;;14.14;77.43;99121.44;5082939;28;20025;-67
2021/08/16 06:31:45;;;;;;;5.53;3.28;;;;;;;14.20;77.33;99117.72;5081588;28;20023;-68
2021/08/16 06:34:11;;;;;;;4.45;2.88;;;;;;;14.23;77.10;99109.75;5083308;28;20040;-68
2021/08/16 06:36:41;;;;;;;6.22;3.40;;;;;;;14.29;77.07;99114.69;5083412;28;20086;-67
2021/08/16 06:39:18;;;;;;;5.95;2.95;;;;;;;14.29;76.88;99103.41;5081775;28;20028;-68
2021/08/16 06:41:45;;;;;;;11.63;3.05;;;;;;;14.35;77.18;99116.19;5081598;28;20028;-68
2021/08/16 06:44:11;;;;;;;9.48;3.40;;;;;;;14.46;77.21;99123.53;5082764;28;20589;-68
2021/08/16 06:46:38;;;;;;;6.80;3.35;;;;;;;14.55;77.66;99111.81;5082796;28;20047;-69
2021/08/16 06:49:03;;;;;;;13.75;3.40;;;;;;;14.71;77.62;99128.47;5083032;28;20054;-68
2021/08/16 06:51:29;;;;;;;5.90;2.72;;;;;;;14.79;77.54;99133.38;5081429;28;20020;-68
2021/08/16 06:53:54;;;;;;;7.03;3.70;;;;;;;14.87;77.25;99131.25;5083200;28;20032;-69
2021/08/16 06:56:20;;;;;;;9.30;3.75;;;;;;;14.89;77.14;99112.06;5082917;28;20048;-69
2021/08/16 06:58:45;;;;;;;6.45;3.47;;;;;;;15.10;76.89;99144.16;5081712;28;20044;-69
2021/08/16 07:01:18;;;;;;;6.13;3.47;;;;;;;15.07;76.17;99139.91;5083236;28;20025;-69
2021/08/16 07:03:44;;;;;;;3.95;2.65;;;;;;;14.93;75.21;99139.72;5083065;28;20025;-69
2021/08/16 07:06:09;;;;;;;4.80;2.78;;;;;;;14.81;75.10;99152.44;5083094;28;20024;-70
2021/08/16 07:08:34;;;;;;;6.18;2.95;;;;;;;14.77;75.16;99147.41;5072611;23;20476;-69
2021/08/16 07:11:00;;;;;;;6.53;3.25;;;;;;;14.67;75.06;99154.81;5061803;28;20091;-69
2021/08/16 07:16:47;;;;;;;5.80;3.20;;;;;;;14.55;74.91;99154.47;5061274;28;20040;-72
2021/08/16 07:19:12;;;;;;;6.40;3.20;;;;;;;14.48;74.96;99145.19;5061549;28;20266;-70
2021/08/16 07:21:38;;;;;;;8.48;3.90;;;;;;;14.41;74.92;99159.47;5063018;28;20113;-72
2021/08/16 07:24:03;;;;;;;7.78;4.00;;;;;;;14.26;75.02;99156.59;5062761;28;20704;-70
2021/08/16 07:26:29;;;;;;;8.30;4.60;;;;;;;14.15;75.58;99153.63;5062407;28;20044;-70
2021/08/16 07:28:54;;;;;;;13.85;4.90;;;;;;;14.06;76.12;99160.06;5061621;28;20453;-70
2021/08/16 07:31:20;;;;;;;11.75;5.65;;;;;;;13.91;76.48;99161.59;5062009;28;20055;-70
2021/08/16 07:33:45;;;;;;;13.20;5.15;;;;;;;13.82;77.01;99153.22;5062779;28;20464;-70
2021/08/16 07:36:10;;;;;;;11.77;6.10;;;;;;;13.72;78.35;99151.94;5062817;28;20021;-70
2021/08/16 07:38:36;;;;;;;13.43;5.38;;;;;;;13.69;78.98;99147.66;5062604;28;20106;-73
2021/08/16 07:41:01;;;;;;;12.05;5.03;;;;;;;13.73;79.14;99149.25;5062499;28;20413;-72
2021/08/16 07:43:27;;;;;;;19.20;5.78;;;;;;;13.71;79.45;99156.28;5062648;28;20446;-71
2021/08/16 07:45:52;;;;;;;16.27;6.85;;;;;;;13.68;80.06;99152.94;5062564;28;20572;-72
2021/08/16 07:48:17;;;;;;;16.83;5.95;;;;;;;13.63;80.64;99143.56;5061402;28;20027;-71
2021/08/16 07:50:43;;;;;;;17.08;7.07;;;;;;;13.70;81.47;99157.22;5063035;28;20051;-69
2021/08/16 07:53:09;;;;;;;20.77;8.73;;;;;;;13.74;82.16;99157.91;5066309;28;20073;-69
2021/08/16 07:55:34;;;;;;;10.82;6.90;;;;;;;13.79;82.24;99145.53;5065968;28;20495;-69
2021/08/16 07:57:59;;;;;;;12.65;7.28;;;;;;;13.86;82.67;99144.38;5066074;28;20020;-68
2021/08/16 08:00:25;;;;;;;18.83;8.35;;;;;;;13.89;82.85;99146.00;5066176;28;20021;-71
2021/08/16 08:02:51;;;;;;;12.90;7.10;;;;;;;13.95;83.43;99147.47;5066223;28;20033;-69
2021/08/16 08:05:18;;;;;;;11.75;7.50;;;;;;;14.03;83.56;99150.63;5064290;28;20029;-68
2021/08/16 08:07:45;;;;;;;16.13;7.63;;;;;;;14.14;84.08;99150.16;5065541;28;20041;-68
2021/08/16 08:10:11;;;;;;;13.73;7.53;;;;;;;14.22;84.52;99148.06;5065777;28;20024;-69
2021/08/16 08:12:37;;;;;;;14.07;8.10;;;;;;;14.27;84.25;99152.22;5065833;28;20103;-69
2021/08/16 08:15:05;;;;;;;22.95;9.52;;;;;;;14.29;84.82;99155.63;5065634;28;20024;-69
2021/08/16 08:17:30;;;;;;;19.63;8.48;;;;;;;14.34;85.02;99159.72;5065459;28;20020;-68
2021/08/16 08:19:56;;;;;;;16.75;8.23;;;;;;;14.36;84.77;99165.72;5065762;28;20017;-68
2021/08/16 08:22:25;;;;;;;18.13;9.52;;;;;;;14.28;84.81;99154.75;5064483;28;20051;-68
2021/08/16 08:24:51;;;;;;;14.93;8.40;;;;;;;14.24;85.33;99156.69;5065217;28;20119;-68
2021/08/16 08:27:17;;;;;;;14.55;8.15;;;;;;;14.20;84.97;99149.03;5065194;28;20021;-68
2021/08/16 08:29:44;;;;;;;14.02;8.40;;;;;;;14.19;85.46;99149.94;5065488;28;20329;-68
2021/08/16 08:32:10;;;;;;;13.65;7.55;;;;;;;14.08;85.67;99143.44;5065116;28;20079;-66
2021/08/16 08:34:36;;;;;;;13.23;7.43;;;;;;;14.10;85.56;99146.84;5065158;28;20017;-67
2021/08/16 08:37:15;;;;;;;18.92;8.27;;;;;;;14.20;85.91;99151.66;5063767;28;20024;-67
2021/08/16 08:39:42;;;;;;;15.05;8.15;;;;;;;14.33;86.55;99133.69;5065071;28;20021;-67
2021/08/16 08:42:08;;;;;;;15.20;8.43;;;;;;;14.70;86.97;99152.03;5064887;28;20485;-67
2021/08/16 08:44:35;;;;;;;12.52;8.60;;;;;;;15.09;87.18;99147.69;5065028;28;20085;-67
2021/08/16 08:47:01;;;;;;;12.40;7.15;;;;;;;15.62;87.54;99137.31;5064846;28;20050;-66
2021/08/16 08:49:26;;;;;;;14.32;7.18;;;;;;;16.31;87.24;99154.81;5064823;28;20036;-68
2021/08/16 08:51:52;;;;;;;10.65;6.53;;;;;;;16.94;86.82;99147.97;5062969;28;20021;-67
2021/08/16 08:54:19;;;;;;;8.43;4.22;;;;;;;17.96;86.04;99147.50;5063947;28;20021;-67
2021/08/16 08:56:46;;;;;;;7.60;3.85;;;;;;;18.66;82.53;99145.06;5064359;28;20025;-68
2021/08/16 08:59:12;;;;;;;6.55;3.70;;;;;;;18.91;79.46;99135.66;5064874;28;20078;-68
2021/08/16 09:01:48;;;;;;;6.68;3.38;;;;;;;19.41;77.39;99140.41;5064323;28;20023;-70
2021/08/16 09:04:13;;;;;;;5.65;3.05;;;;;;;19.42;74.09;99139.44;5063283;28;20025;-70
2021/08/16 09:06:41;;;;;;;4.63;2.85;;;;;;;19.43;75.04;99141.13;5064538;28;20031;-71
2021/08/16 09:09:07;;;;;;;7.30;3.00;;;;;;;19.21;75.70;99153.06;5064335;28;20061;-73
2021/08/16 09:11:33;;;;;;;4.90;2.65;;;;;;;19.11;76.46;99150.19;5064458;28;20056;-75
2021/08/16 09:14:05;;;;;;;7.50;3.13;;;;;;;19.19;74.81;99152.31;5064653;28;20021;-74
2021/08/16 09:16:35;;;;;;;6.05;3.50;;;;;;;19.63;77.35;99146.88;5062947;28;20039;-74
2021/08/16 09:19:17;;;;;;;5.65;2.55;;;;;;;20.59;74.29;99151.84;5064440;28;20060;-72
2021/08/16 09:21:48;;;;;;;3.90;2.25;;;;;;;21.05;72.69;99145.91;5064432;28;20103;-72
2021/08/16 09:24:22;;;;;;;9.45;3.75;;;;;;;20.91;71.01;99149.56;5064155;28;20027;-72
2021/08/16 09:26:48;;;;;;;5.40;2.85;;;;;;;20.45;70.84;99148.38;5064000;28;20067;-73
2021/08/16 09:29:14;;;;;;;5.28;2.92;;;;;;;20.24;73.63;99151.56;5064371;28;20052;-73
2021/08/16 09:31:51;;;;;;;5.20;2.70;;;;;;;20.69;74.99;99150.22;5064017;28;20032;-72
2021/08/16 09:34:30;;;;;;;5.70;2.53;;;;;;;21.27;73.17;99160.19;5063775;28;20013;-71
2021/08/16 09:37:00;;;;;;;5.90;2.90;;;;;;;21.48;69.34;99151.66;5064004;28;20017;-70
2021/08/16 09:39:27;;;;;;;5.68;2.65;;;;;;;21.66;66.53;99156.50;5063924;28;20021;-70
2021/08/16 09:41:57;;;;;;;5.10;2.10;;;;;;;21.17;66.30;99167.09;5064078;28;20104;-70
2021/08/16 09:44:23;;;;;;;8.25;2.13;;;;;;;20.64;66.62;99153.19;5063747;28;20053;-69
2021/08/16 09:47:04;;;;;;;7.68;2.28;;;;;;;20.27;68.46;99161.88;5063750;28;20032;-69
2021/08/16 09:49:32;;;;;;;5.43;2.60;;;;;;;20.05;68.24;99162.53;5063952;28;20059;-69
2021/08/16 09:52:05;;;;;;;4.45;1.70;;;;;;;20.78;67.57;99156.66;5063925;28;20064;-69
2021/08/16 09:54:33;;;;;;;4.18;1.65;;;;;;;21.51;63.21;99158.50;5063917;28;20024;-69
2021/08/16 09:57:00;;;;;;;3.03;1.58;;;;;;;21.79;60.87;99151.16;5063479;28;20025;-68
2021/08/16 09:59:25;;;;;;;2.75;1.40;;;;;;;21.55;60.85;99152.00;5063763;28;20367;-68
2021/08/16 10:01:51;;;;;;;2.75;1.33;;;;;;;21.43;62.63;99159.06;5063487;28;20260;-68
2021/08/16 10:04:16;;;;;;;2.70;1.80;;;;;;;21.64;61.21;99156.63;5063212;28;20445;-68
2021/08/16 10:06:42;;;;;;;4.25;1.90;;;;;;;22.28;59.80;99143.88;5063395;28;20481;-68
2021/08/16 10:09:10;;;;;;;4.43;1.70;;;;;;;22.44;60.82;99137.41;5063321;28;20049;-68
2021/08/16 10:11:36;;;;;;;5.72;1.85;;;;;;;22.60;57.52;99157.38;5063478;28;20111;-68
2021/08/16 10:14:01;;;;;;;3.67;1.92;;;;;;;22.91;59.87;99154.91;5062888;28;20024;-68
2021/08/16 10:16:35;;;;;;;2.55;1.50;;;;;;;23.19;59.92;99160.63;5063347;28;20025;-68
2021/08/16 10:19:03;;;;;;;4.20;2.08;;;;;;;23.62;58.67;99155.41;5063498;28;20259;-68
2021/08/16 10:21:30;;;;;;;3.08;1.70;;;;;;;23.71;58.66;99148.50;5063606;28;20021;-68
2021/08/16 10:23:55;;;;;;;7.10;2.42;;;;;;;23.64;58.77;99156.97;5063321;28;20091;-68
2021/08/16 10:26:34;;;;;;;4.60;1.67;;;;;;;23.12;59.63;99152.34;5063228;28;20021;-68
2021/08/16 10:29:05;;;;;;;4.43;1.48;;;;;;;22.81;59.58;99157.50;5063218;28;20021;-68
2021/08/16 10:31:36;;;;;;;6.22;1.83;;;;;;;22.49;60.99;99160.84;5045306;28;20017;-68
2021/08/16 10:34:03;;;;;;;3.90;1.70;;;;;;;22.23;59.91;99156.63;5062130;28;20096;-68
2021/08/16 10:36:28;;;;;;;3.92;1.70;;;;;;;21.79;59.89;99157.28;5063246;28;20025;-68
2021/08/16 10:39:02;;;;;;;5.38;1.90;;;;;;;21.84;61.67;99151.66;5063191;28;20059;-68
2021/08/16 10:41:31;;;;;;;2.90;1.50;;;;;;;21.91;60.12;99152.03;5063405;28;20029;-69
2021/08/16 10:44:08;;;;;;;1.92;1.20;;;;;;;21.97;59.86;99154.19;5063219;28;20124;-69
2021/08/16 10:46:34;;;;;;;2.63;1.50;;;;;;;21.83;59.50;99154.41;5061811;28;20132;-70
2021/08/16 10:49:06;;;;;;;2.83;1.30;;;;;;;21.64;59.42;99153.13;5063127;28;20175;-69
2021/08/16 10:51:48;;;;;;;2.67;1.10;;;;;;;21.40;59.40;99159.28;5062128;28;20172;-69
2021/08/16 10:54:28;;;;;;;3.17;1.65;;;;;;;21.09;59.27;99154.47;5063432;28;20025;-69
2021/08/16 10:56:55;;;;;;;3.15;1.40;;;;;;;21.12;59.57;99151.59;5062683;28;20021;-70
2021/08/16 10:59:31;;;;;;;10.82;1.85;;;;;;;21.13;60.48;99163.00;5063364;28;20116;-68
2021/08/16 11:01:59;;;;;;;4.05;1.27;;;;;;;21.19;59.33;99157.28;5063165;28;20044;-70
2021/08/16 11:04:32;;;;;;;2.38;1.17;;;;;;;21.09;58.91;99156.25;5062989;28;20029;-69
2021/08/16 11:07:03;;;;;;;5.03;1.33;;;;;;;20.82;56.67;99152.84;5062938;28;20082;-69
2021/08/16 11:09:33;;;;;;;4.05;1.70;;;;;;;20.72;57.38;99157.09;5062140;28;20079;-70
2021/08/16 11:12:05;;;;;;;4.43;1.50;;;;;;;20.62;57.67;99156.91;5062933;28;20021;-69
2021/08/16 11:14:31;;;;;;;3.03;1.52;;;;;;;20.62;55.84;99155.13;5063161;28;20053;-69
2021/08/16 11:16:58;;;;;;;3.40;1.30;;;;;;;20.70;56.16;99156.34;5062731;28;20350;-68
2021/08/16 11:19:24;;;;;;;4.35;1.33;;;;;;;20.64;55.75;99157.66;5062370;28;20025;-69
2021/08/16 11:21:58;;;;;;;3.15;1.50;;;;;;;20.79;56.03;99159.19;5062605;28;20020;-68
2021/08/16 11:24:30;;;;;;;2.70;1.25;;;;;;;20.89;54.61;99155.88;5063651;28;20033;-69
2021/08/16 11:26:56;;;;;;;2.72;1.55;;;;;;;20.89;54.29;99156.75;5065994;28;20020;-69
2021/08/16 11:29:23;;;;;;;2.75;1.60;;;;;;;20.90;53.82;99152.28;5065979;28;20124;-69